Time;durP1;ratioP1;P1;durP2;ratioP2;P2;SDS_P1;SDS_P2;PMS_P1;PMS_P2;Temp;Humidity;BMP_temperature;BMP_pressure;BME280_temperature;BME280_humidity;BME280_pressure;Samples;Min_cycle;Max_cycle;Signal;HPM_P1;HPM_P2
2023/12/27 00:01:45;;;;;;;3.83;2.00;;;11.30;99.90;;;;;;5115993;28;20253;-70
2023/12/27 00:04:11;;;;;;;2.90;1.70;;;11.20;99.90;;;;;;5115942;28;20173;-70
2023/12/27 00:06:36;;;;;;;3.33;1.80;;;11.30;99.90;;;;;;5114718;28;20225;-70
2023/12/27 00:09:02;;;;;;;2.47;1.80;;;11.20;99.90;;;;;;5115707;28;20172;-70
2023/12/27 00:11:28;;;;;;;2.70;1.63;;;11.20;99.90;;;;;;5115758;28;20191;-70
2023/12/27 00:13:54;;;;;;;3.77;1.30;;;11.30;99.90;;;;;;5115574;28;20628;-70
2023/12/27 00:16:20;;;;;;;2.67;1.50;;;11.10;99.90;;;;;;5111168;28;20444;-70
2023/12/27 00:18:45;;;;;;;2.80;1.60;;;11.00;99.90;;;;;;5116211;28;20629;-70
2023/12/27 00:21:11;;;;;;;4.23;1.97;;;11.10;99.90;;;;;;5115941;28;20660;-70
2023/12/27 00:23:36;;;;;;;3.00;1.50;;;11.00;99.90;;;;;;5116447;28;20252;-70
2023/12/27 00:26:02;;;;;;;1.83;1.60;;;10.90;99.90;;;;;;5116588;28;20247;-70
2023/12/27 00:28:28;;;;;;;3.97;1.30;;;10.90;99.90;;;;;;5115800;28;20173;-70
2023/12/27 00:30:54;;;;;;;2.43;1.50;;;11.00;99.90;;;;;;5115305;28;20813;-70
2023/12/27 00:33:19;;;;;;;3.97;1.90;;;11.00;99.90;;;;;;5115627;28;20202;-70
2023/12/27 00:35:45;;;;;;;3.43;1.40;;;11.10;99.90;;;;;;5114517;28;20244;-68
2023/12/27 00:38:10;;;;;;;3.67;1.80;;;11.10;99.90;;;;;;5115354;28;20169;-69
2023/12/27 00:40:36;;;;;;;2.60;1.60;;;11.10;99.90;;;;;;5113953;28;20202;-69
2023/12/27 00:43:02;;;;;;;3.30;1.80;;;11.20;99.90;;;;;;5115512;28;20192;-69
2023/12/27 00:45:27;;;;;;;1.80;1.60;;;11.20;99.90;;;;;;5115202;28;20160;-69
2023/12/27 00:47:53;;;;;;;3.80;1.50;;;11.10;99.90;;;;;;5115413;28;20176;-69
2023/12/27 00:50:19;;;;;;;2.03;1.17;;;11.00;99.90;;;;;;5096460;28;20244;-69
2023/12/27 00:52:45;;;;;;;3.00;1.60;;;11.00;99.90;;;;;;5114987;27;20403;-69
2023/12/27 00:55:10;;;;;;;2.90;2.03;;;10.90;99.90;;;;;;5115486;28;20396;-69
2023/12/27 00:57:36;;;;;;;4.33;1.67;;;10.80;99.90;;;;;;5114988;28;20654;-69
2023/12/27 01:00:03;;;;;;;2.70;1.70;;;10.80;99.90;;;;;;5114897;28;20698;-69
2023/12/27 01:02:29;;;;;;;2.00;1.57;;;10.70;99.90;;;;;;5114845;28;20170;-69
2023/12/27 01:04:55;;;;;;;2.83;1.43;;;10.70;99.90;;;;;;5114673;28;20420;-69
2023/12/27 01:07:21;;;;;;;4.53;1.80;;;10.80;99.90;;;;;;5114952;28;20172;-69
2023/12/27 01:09:47;;;;;;;1.97;1.50;;;10.80;99.90;;;;;;5114675;28;20491;-69
2023/12/27 01:12:13;;;;;;;1.80;1.30;;;10.80;99.90;;;;;;5114786;28;20499;-69
2023/12/27 01:14:38;;;;;;;2.43;1.37;;;10.80;99.90;;;;;;5114700;28;20195;-70
2023/12/27 01:17:04;;;;;;;2.63;1.53;;;10.70;99.90;;;;;;5114674;28;20164;-70
2023/12/27 01:19:29;;;;;;;2.03;1.57;;;10.50;99.90;;;;;;5114443;28;20174;-69
2023/12/27 01:21:55;;;;;;;1.40;1.30;;;10.60;99.90;;;;;;5114537;28;20249;-69
2023/12/27 01:24:20;;;;;;;2.87;1.67;;;10.50;99.90;;;;;;5114374;28;20198;-69
2023/12/27 01:26:46;;;;;;;1.63;1.23;;;10.50;99.90;;;;;;5114615;28;20254;-69
2023/12/27 01:29:12;;;;;;;4.00;1.50;;;10.50;99.90;;;;;;5114301;28;20169;-69
2023/12/27 01:31:37;;;;;;;2.53;1.90;;;10.60;99.90;;;;;;5114471;28;20159;-69
2023/12/27 01:34:03;;;;;;;3.53;1.80;;;10.50;99.90;;;;;;5114009;28;20719;-69
2023/12/27 01:36:28;;;;;;;2.47;1.67;;;10.50;99.90;;;;;;5112917;28;20160;-69
2023/12/27 01:38:54;;;;;;;4.73;2.00;;;10.60;99.90;;;;;;5114310;28;20166;-69
2023/12/27 01:41:19;;;;;;;3.17;1.87;;;10.60;99.90;;;;;;5114073;28;20169;-69
2023/12/27 01:43:45;;;;;;;2.20;1.70;;;10.60;99.90;;;;;;5114127;28;20189;-68
2023/12/27 01:46:11;;;;;;;3.13;1.70;;;10.70;99.90;;;;;;5114093;28;20168;-69
2023/12/27 01:48:38;;;;;;;2.60;1.50;;;10.60;99.90;;;;;;5113735;28;20221;-69
2023/12/27 01:51:03;;;;;;;3.60;1.63;;;10.60;99.90;;;;;;5113783;28;20451;-69
2023/12/27 01:53:29;;;;;;;2.73;1.80;;;10.60;99.90;;;;;;5113693;28;20948;-69
2023/12/27 01:55:55;;;;;;;4.30;1.83;;;10.60;99.90;;;;;;5113756;28;20925;-69
2023/12/27 01:58:22;;;;;;;1.93;1.60;;;10.60;99.90;;;;;;5113826;28;20396;-68
2023/12/27 02:00:48;;;;;;;2.00;1.40;;;10.60;99.90;;;;;;5109894;28;20770;-69
2023/12/27 02:03:14;;;;;;;2.27;1.30;;;10.40;99.90;;;;;;5093294;28;20428;-69
2023/12/27 02:05:40;;;;;;;3.43;1.50;;;10.50;99.90;;;;;;5093343;28;20498;-70
2023/12/27 02:08:09;;;;;;;2.23;1.33;;;10.60;99.90;;;;;;5093369;28;20514;-69
2023/12/27 02:10:35;;;;;;;1.53;1.43;;;10.60;99.90;;;;;;5094309;28;20469;-69
2023/12/27 02:13:05;;;;;;;3.80;1.87;;;10.60;99.90;;;;;;5113540;28;20415;-69
2023/12/27 02:15:31;;;;;;;3.53;1.90;;;10.60;99.90;;;;;;5113353;28;20449;-69
2023/12/27 02:17:59;;;;;;;3.10;1.83;;;10.60;99.90;;;;;;5114569;28;20477;-68
2023/12/27 02:20:26;;;;;;;1.57;1.30;;;10.60;99.90;;;;;;5113759;28;20198;-69
2023/12/27 02:22:53;;;;;;;2.20;1.60;;;10.50;99.90;;;;;;5113385;28;20433;-69
2023/12/27 02:25:19;;;;;;;3.07;1.70;;;10.40;99.90;;;;;;5113485;28;20926;-69
2023/12/27 02:27:45;;;;;;;1.60;1.07;;;10.30;99.90;;;;;;5113436;28;20421;-69
2023/12/27 02:30:22;;;;;;;6.83;1.90;;;10.30;99.90;;;;;;5095550;28;20453;-69
2023/12/27 02:32:48;;;;;;;2.00;1.20;;;10.20;99.90;;;;;;5111048;28;20169;-69
2023/12/27 02:35:14;;;;;;;1.90;1.40;;;10.20;99.90;;;;;;5113620;28;20408;-69
2023/12/27 02:37:40;;;;;;;2.00;1.70;;;10.10;99.90;;;;;;5113558;28;20394;-69
2023/12/27 02:40:07;;;;;;;3.93;1.17;;;10.00;99.90;;;;;;5113362;28;20177;-69
2023/12/27 02:42:32;;;;;;;3.73;1.70;;;10.00;99.90;;;;;;5113263;28;20961;-69
2023/12/27 02:44:58;;;;;;;2.60;1.40;;;10.00;99.90;;;;;;5095061;28;20433;-69
2023/12/27 02:47:23;;;;;;;2.40;1.07;;;10.00;99.90;;;;;;5095687;28;20189;-69
2023/12/27 02:49:49;;;;;;;4.00;2.07;;;10.00;99.90;;;;;;5113162;28;20195;-69
2023/12/27 02:52:15;;;;;;;2.60;1.20;;;10.00;99.90;;;;;;5113163;28;20277;-69
2023/12/27 02:54:40;;;;;;;1.77;1.10;;;10.00;99.90;;;;;;5113718;28;20288;-69
2023/12/27 02:57:06;;;;;;;2.60;1.37;;;10.00;99.90;;;;;;5113354;28;20160;-69
2023/12/27 02:59:31;;;;;;;2.93;1.50;;;10.10;99.90;;;;;;5113695;28;20680;-69
2023/12/27 03:01:57;;;;;;;3.30;1.37;;;10.20;99.90;;;;;;5113347;28;20166;-69
2023/12/27 03:04:23;;;;;;;2.93;1.50;;;10.00;99.90;;;;;;5113007;28;20187;-69
2023/12/27 03:06:49;;;;;;;2.70;1.37;;;10.00;99.90;;;;;;5113313;28;20178;-69
2023/12/27 03:09:15;;;;;;;2.00;1.10;;;9.90;99.90;;;;;;5113066;28;20403;-69
2023/12/27 03:11:40;;;;;;;1.83;1.30;;;10.00;99.90;;;;;;5113109;28;20404;-69
2023/12/27 03:14:06;;;;;;;2.20;1.27;;;10.00;99.90;;;;;;5116338;28;20546;-69
2023/12/27 03:16:32;;;;;;;3.00;1.70;;;10.10;99.90;;;;;;5116794;28;20160;-69
2023/12/27 03:18:57;;;;;;;3.30;1.70;;;10.10;99.90;;;;;;5116876;28;20187;-69
2023/12/27 03:21:23;;;;;;;1.90;1.53;;;10.20;99.90;;;;;;5116560;28;20580;-69
2023/12/27 03:23:49;;;;;;;3.60;2.03;;;10.10;99.90;;;;;;5116980;28;20188;-69
2023/12/27 03:26:14;;;;;;;3.43;1.67;;;10.10;99.90;;;;;;5116889;28;20172;-69
2023/12/27 03:28:40;;;;;;;2.80;1.60;;;10.00;99.90;;;;;;5116840;28;20219;-69
2023/12/27 03:31:06;;;;;;;1.93;1.40;;;10.10;99.90;;;;;;5116612;28;20596;-69
2023/12/27 03:33:32;;;;;;;2.67;1.70;;;10.00;99.90;;;;;;5116779;28;20191;-69
2023/12/27 03:35:57;;;;;;;2.40;1.60;;;10.10;99.90;;;;;;5116865;28;20761;-69
2023/12/27 03:38:23;;;;;;;2.73;1.83;;;10.10;99.90;;;;;;5116546;28;20954;-69
2023/12/27 03:40:49;;;;;;;3.00;2.10;;;9.90;99.90;;;;;;5116954;27;20270;-69
2023/12/27 03:43:15;;;;;;;2.13;1.50;;;10.00;99.90;;;;;;5116378;28;20670;-69
2023/12/27 03:45:40;;;;;;;2.67;1.40;;;9.90;99.90;;;;;;5116708;28;20249;-69
2023/12/27 03:48:06;;;;;;;3.10;1.20;;;10.00;99.90;;;;;;5116287;28;20167;-69
2023/12/27 03:50:32;;;;;;;2.00;1.70;;;10.00;99.90;;;;;;5115823;28;20634;-69
2023/12/27 03:52:57;;;;;;;2.40;1.73;;;10.10;99.90;;;;;;5115830;28;20620;-69
2023/12/27 03:55:26;;;;;;;4.20;1.67;;;10.00;99.90;;;;;;5115623;28;20410;-69
2023/12/27 03:57:52;;;;;;;1.50;1.40;;;10.10;99.90;;;;;;5116200;28;20161;-69
2023/12/27 04:00:18;;;;;;;5.43;1.83;;;10.10;99.90;;;;;;5116247;28;20412;-69
2023/12/27 04:02:44;;;;;;;6.67;1.73;;;10.20;99.90;;;;;;5115893;28;20407;-70
2023/12/27 04:05:10;;;;;;;3.53;1.80;;;10.30;99.90;;;;;;5114747;28;20406;-70
2023/12/27 04:07:36;;;;;;;3.60;2.30;;;10.40;99.90;;;;;;5115794;28;20409;-70
2023/12/27 04:10:03;;;;;;;3.47;2.00;;;10.40;99.90;;;;;;5115808;28;20199;-70
2023/12/27 04:12:28;;;;;;;4.00;1.73;;;10.30;99.90;;;;;;5116001;28;20167;-70
2023/12/27 04:14:54;;;;;;;3.60;1.87;;;10.30;99.90;;;;;;5115861;28;20425;-70
2023/12/27 04:17:19;;;;;;;3.83;2.03;;;10.40;99.90;;;;;;5116589;28;20534;-70
2023/12/27 04:19:45;;;;;;;1.50;1.37;;;10.40;99.90;;;;;;5116025;28;20517;-70
2023/12/27 04:22:10;;;;;;;2.77;1.60;;;10.40;99.90;;;;;;5115697;28;20605;-70
2023/12/27 04:24:36;;;;;;;2.50;1.83;;;10.40;99.90;;;;;;5115071;28;20212;-70
2023/12/27 04:27:02;;;;;;;2.27;1.83;;;10.30;99.90;;;;;;5115574;28;20650;-69
2023/12/27 04:29:28;;;;;;;4.60;1.60;;;10.30;99.90;;;;;;5115583;28;20666;-69
2023/12/27 04:31:53;;;;;;;3.00;1.70;;;10.30;99.90;;;;;;5115440;28;20401;-69
2023/12/27 04:34:19;;;;;;;2.70;1.90;;;10.40;99.90;;;;;;5097119;28;20189;-68
2023/12/27 04:36:44;;;;;;;2.40;2.03;;;10.30;99.90;;;;;;5115254;28;20164;-69
2023/12/27 04:39:10;;;;;;;2.30;1.70;;;10.30;99.90;;;;;;5115381;28;20159;-69
2023/12/27 04:41:36;;;;;;;5.57;2.40;;;10.30;99.90;;;;;;5115107;28;20519;-69
2023/12/27 04:44:01;;;;;;;3.93;1.90;;;10.30;99.90;;;;;;5115042;28;20186;-69
2023/12/27 04:46:27;;;;;;;3.47;1.70;;;10.30;99.90;;;;;;5115228;28;20172;-68
2023/12/27 04:48:52;;;;;;;2.20;1.77;;;10.30;99.90;;;;;;5114977;28;20167;-68
2023/12/27 04:51:18;;;;;;;3.30;2.47;;;10.30;99.90;;;;;;5114875;28;20714;-68
2023/12/27 04:53:43;;;;;;;2.40;1.90;;;10.30;99.90;;;;;;5114825;28;20205;-69
2023/12/27 04:56:09;;;;;;;5.70;2.37;;;10.40;99.90;;;;;;5114977;28;20265;-69
2023/12/27 04:58:36;;;;;;;4.10;1.93;;;10.30;99.90;;;;;;5114875;28;20260;-69
2023/12/27 05:01:06;;;;;;;3.83;1.87;;;10.20;99.90;;;;;;5114765;28;20575;-69
2023/12/27 05:03:35;;;;;;;2.30;2.10;;;10.20;99.90;;;;;;5114695;28;20505;-69
2023/12/27 05:06:18;;;;;;;3.00;1.67;;;10.20;99.90;;;;;;5114919;28;20903;-68
2023/12/27 05:08:44;;;;;;;2.13;1.60;;;10.20;99.90;;;;;;5114932;28;20842;-69
2023/12/27 05:11:15;;;;;;;4.70;2.00;;;10.20;99.90;;;;;;5114745;28;20536;-69
2023/12/27 05:13:41;;;;;;;2.60;1.80;;;10.20;99.90;;;;;;5114733;28;20420;-69
2023/12/27 05:16:11;;;;;;;1.90;1.63;;;10.10;99.90;;;;;;5114704;28;20404;-69
2023/12/27 05:18:42;;;;;;;4.30;2.03;;;10.00;99.90;;;;;;5096254;28;20477;-69
2023/12/27 05:21:09;;;;;;;3.20;1.93;;;9.80;99.90;;;;;;5114650;28;20397;-69
2023/12/27 05:23:35;;;;;;;3.17;1.80;;;9.70;99.90;;;;;;5114408;28;20426;-68
2023/12/27 05:26:01;;;;;;;2.60;1.90;;;9.60;99.90;;;;;;5114341;28;20400;-69
2023/12/27 05:28:27;;;;;;;3.27;2.37;;;9.40;99.90;;;;;;5114328;28;20170;-69
2023/12/27 05:30:53;;;;;;;2.60;1.80;;;9.40;99.90;;;;;;5113976;28;20530;-69
2023/12/27 05:33:18;;;;;;;2.20;1.90;;;9.40;99.90;;;;;;5114410;28;20195;-69
2023/12/27 05:35:44;;;;;;;2.53;2.00;;;9.20;99.90;;;;;;5114031;28;20219;-69
2023/12/27 05:38:09;;;;;;;6.67;2.70;;;9.20;99.90;;;;;;5114243;28;20307;-69
2023/12/27 05:40:35;;;;;;;2.90;2.10;;;9.10;99.90;;;;;;5114102;28;20173;-69
2023/12/27 05:43:00;;;;;;;5.33;2.50;;;9.00;99.90;;;;;;5113810;28;20203;-69
2023/12/27 05:45:26;;;;;;;3.70;2.47;;;8.90;99.90;;;;;;5113959;28;20645;-69
2023/12/27 05:47:51;;;;;;;3.07;2.03;;;8.90;99.90;;;;;;5114242;28;20250;-69
2023/12/27 05:50:17;;;;;;;6.73;2.87;;;8.90;99.90;;;;;;5103949;28;20185;-68
2023/12/27 05:52:43;;;;;;;3.80;2.30;;;8.80;99.90;;;;;;5113660;28;20195;-69
2023/12/27 05:55:08;;;;;;;7.10;2.87;;;8.80;99.90;;;;;;5114095;28;20152;-69
2023/12/27 05:57:34;;;;;;;2.33;1.70;;;8.80;99.90;;;;;;5114155;28;20511;-69
2023/12/27 05:59:59;;;;;;;4.17;2.17;;;8.80;99.90;;;;;;5113139;28;20183;-68
2023/12/27 06:02:25;;;;;;;3.73;2.50;;;8.70;99.90;;;;;;5100644;28;20544;-69
2023/12/27 06:04:51;;;;;;;3.50;2.07;;;8.70;99.90;;;;;;5093212;28;20717;-68
2023/12/27 06:07:16;;;;;;;3.40;2.40;;;8.60;99.90;;;;;;5094020;28;20538;-69
2023/12/27 06:09:42;;;;;;;4.07;2.40;;;8.60;99.90;;;;;;5093306;28;20288;-69
2023/12/27 06:12:08;;;;;;;4.30;2.70;;;8.60;99.90;;;;;;5103686;28;20179;-69
2023/12/27 06:14:34;;;;;;;4.40;3.17;;;8.70;99.90;;;;;;5112170;28;20464;-69
2023/12/27 06:17:01;;;;;;;5.93;3.50;;;8.60;99.90;;;;;;5113192;28;20484;-68
2023/12/27 06:19:28;;;;;;;5.20;3.00;;;8.50;99.90;;;;;;5113621;28;20976;-69
2023/12/27 06:21:54;;;;;;;3.40;2.30;;;8.50;99.90;;;;;;5113329;28;20489;-69
2023/12/27 06:24:20;;;;;;;4.77;2.60;;;8.50;99.90;;;;;;5113581;28;20835;-69
2023/12/27 06:26:46;;;;;;;3.37;2.53;;;8.50;99.90;;;;;;5113852;28;20166;-69
2023/12/27 06:29:11;;;;;;;4.53;3.20;;;8.50;99.90;;;;;;5113489;28;20414;-69
2023/12/27 06:31:37;;;;;;;10.90;3.30;;;8.40;99.90;;;;;;5112683;28;20970;-69
2023/12/27 06:34:03;;;;;;;7.90;3.37;;;8.40;99.90;;;;;;5113539;28;20183;-68
2023/12/27 06:36:28;;;;;;;4.13;3.00;;;8.30;99.90;;;;;;5113328;28;20699;-68
2023/12/27 06:38:54;;;;;;;5.37;3.43;;;8.30;99.90;;;;;;5113786;28;20168;-68
2023/12/27 06:41:19;;;;;;;4.60;2.90;;;8.30;99.90;;;;;;5113402;28;20224;-69
2023/12/27 06:43:45;;;;;;;5.13;3.40;;;8.30;99.90;;;;;;5113519;28;20672;-69
2023/12/27 06:46:11;;;;;;;4.87;3.33;;;8.30;99.90;;;;;;5113508;28;20168;-69
2023/12/27 06:48:36;;;;;;;3.30;2.97;;;8.20;99.90;;;;;;5116371;28;20576;-69
2023/12/27 06:51:05;;;;;;;8.83;3.27;;;8.20;99.90;;;;;;5117612;28;20475;-69
2023/12/27 06:53:30;;;;;;;5.80;3.47;;;8.20;99.90;;;;;;5099081;28;20208;-69
2023/12/27 06:55:56;;;;;;;9.43;3.83;;;8.10;99.90;;;;;;5117854;28;20394;-69
2023/12/27 06:58:21;;;;;;;4.63;3.13;;;7.90;99.90;;;;;;5117230;28;20218;-69
2023/12/27 07:00:47;;;;;;;3.43;3.13;;;8.00;99.90;;;;;;5117360;28;20246;-69
2023/12/27 07:03:13;;;;;;;6.73;3.57;;;8.20;99.90;;;;;;5117027;28;20183;-68
2023/12/27 07:05:39;;;;;;;7.47;3.23;;;8.20;99.90;;;;;;5117426;28;20168;-69
2023/12/27 07:08:05;;;;;;;6.43;3.50;;;8.10;99.90;;;;;;5117387;28;20195;-68
2023/12/27 07:10:31;;;;;;;5.80;3.53;;;8.20;99.90;;;;;;5117204;28;20951;-69
2023/12/27 07:12:57;;;;;;;4.93;4.13;;;8.20;99.90;;;;;;5116833;28;20423;-68
2023/12/27 07:15:23;;;;;;;6.30;2.87;;;8.30;99.90;;;;;;5117208;28;20631;-69
2023/12/27 07:17:49;;;;;;;3.83;3.10;;;8.30;99.90;;;;;;5116795;28;20398;-69
2023/12/27 07:20:14;;;;;;;4.90;3.20;;;8.40;99.90;;;;;;5116805;28;20172;-69
2023/12/27 07:22:40;;;;;;;5.07;3.57;;;8.50;99.90;;;;;;5116898;28;20172;-69
2023/12/27 07:25:06;;;;;;;4.67;3.13;;;8.60;99.90;;;;;;5116863;28;20169;-69
2023/12/27 07:27:31;;;;;;;4.80;3.20;;;8.60;99.90;;;;;;5116637;28;20165;-69
2023/12/27 07:29:57;;;;;;;4.10;3.23;;;8.70;99.90;;;;;;5116428;28;20242;-68
2023/12/27 07:32:22;;;;;;;5.00;3.20;;;8.60;99.90;;;;;;5116935;28;20168;-68
2023/12/27 07:34:48;;;;;;;7.50;3.10;;;8.60;99.90;;;;;;5116368;28;20188;-69
2023/12/27 07:37:13;;;;;;;4.40;3.33;;;8.60;99.90;;;;;;5116724;28;20249;-69
2023/12/27 07:39:40;;;;;;;6.80;2.83;;;8.40;99.90;;;;;;5116584;28;20172;-68
2023/12/27 07:42:05;;;;;;;4.60;2.90;;;8.50;99.90;;;;;;5116611;28;20168;-69
2023/12/27 07:44:31;;;;;;;5.43;2.83;;;8.60;99.90;;;;;;5114841;28;20431;-68
2023/12/27 07:46:57;;;;;;;4.30;3.43;;;8.70;99.90;;;;;;5116251;28;20208;-68
2023/12/27 07:49:25;;;;;;;4.43;3.07;;;8.70;99.90;;;;;;5116390;28;20638;-69
2023/12/27 07:51:50;;;;;;;4.87;3.00;;;8.70;99.90;;;;;;5116613;28;20271;-69
2023/12/27 07:54:16;;;;;;;4.87;2.73;;;8.80;99.90;;;;;;5116291;27;20459;-68
2023/12/27 07:56:42;;;;;;;4.10;2.73;;;8.70;99.90;;;;;;5116206;28;20182;-69
2023/12/27 07:59:08;;;;;;;8.57;7.70;;;8.70;99.90;;;;;;5115204;28;20213;-69
2023/12/27 08:01:33;;;;;;;3.37;3.07;;;8.80;99.90;;;;;;5117739;28;20161;-69
2023/12/27 08:03:59;;;;;;;6.90;3.80;;;8.80;99.90;;;;;;5117623;28;20461;-70
2023/12/27 08:06:26;;;;;;;4.40;4.00;;;9.00;99.90;;;;;;5117333;28;20191;-70
2023/12/27 08:08:52;;;;;;;5.30;3.93;;;9.00;99.90;;;;;;5116989;28;20412;-70
2023/12/27 08:11:18;;;;;;;4.37;3.97;;;9.00;99.90;;;;;;5116242;28;20459;-69
2023/12/27 08:13:43;;;;;;;3.97;2.80;;;9.00;99.90;;;;;;5117123;28;20433;-69
2023/12/27 08:16:09;;;;;;;4.93;3.57;;;8.90;99.90;;;;;;5116007;28;20247;-69
2023/12/27 08:18:35;;;;;;;7.43;4.67;;;8.80;99.90;;;;;;5115589;28;20245;-68
2023/12/27 08:21:01;;;;;;;5.97;3.80;;;8.80;99.90;;;;;;5115990;28;20187;-69
2023/12/27 08:23:26;;;;;;;5.27;3.43;;;8.80;99.90;;;;;;5116042;28;20414;-69
2023/12/27 08:25:52;;;;;;;4.57;3.27;;;8.90;99.90;;;;;;5115732;28;20609;-69
2023/12/27 08:28:17;;;;;;;7.17;3.97;;;8.90;99.90;;;;;;5115625;28;20197;-69
2023/12/27 08:30:44;;;;;;;4.33;3.43;;;9.00;99.90;;;;;;5115669;28;20190;-69
2023/12/27 08:33:09;;;;;;;4.40;2.83;;;9.10;99.90;;;;;;5115751;28;20596;-69
2023/12/27 08:35:36;;;;;;;5.60;3.40;;;9.10;99.90;;;;;;5115408;28;20481;-69
2023/12/27 08:38:02;;;;;;;5.53;3.43;;;9.20;99.90;;;;;;5097565;28;20216;-69
2023/12/27 08:40:28;;;;;;;4.53;3.60;;;9.30;99.90;;;;;;5115489;28;20871;-69
2023/12/27 08:42:54;;;;;;;9.20;3.70;;;9.20;99.90;;;;;;5115373;28;20453;-69
2023/12/27 08:45:20;;;;;;;4.03;3.70;;;9.20;99.90;;;;;;5115469;28;20175;-69
2023/12/27 08:47:46;;;;;;;4.27;3.30;;;9.30;99.90;;;;;;5115301;28;20411;-69
2023/12/27 08:50:12;;;;;;;8.83;3.80;;;9.40;99.90;;;;;;5115989;28;20546;-69
2023/12/27 08:52:38;;;;;;;5.00;3.90;;;9.30;99.90;;;;;;5115153;27;20538;-69
2023/12/27 08:55:06;;;;;;;5.30;3.30;;;9.40;99.90;;;;;;5121692;22;20271;-70
2023/12/27 08:57:32;;;;;;;5.67;3.17;;;9.40;99.90;;;;;;5094728;28;20410;-70
2023/12/27 08:59:57;;;;;;;5.90;3.70;;;9.40;99.90;;;;;;5115296;28;20414;-70
2023/12/27 09:02:23;;;;;;;5.63;4.30;;;9.40;99.90;;;;;;5115047;28;20408;-70
2023/12/27 09:04:49;;;;;;;5.03;3.80;;;9.50;99.90;;;;;;5130031;27;20184;-69
2023/12/27 09:07:16;;;;;;;5.00;3.60;;;9.50;99.90;;;;;;5118039;27;20191;-69
2023/12/27 09:09:42;;;;;;;3.93;3.30;;;9.50;99.90;;;;;;5114625;28;20431;-68
2023/12/27 09:12:07;;;;;;;5.53;3.70;;;9.20;99.90;;;;;;5114716;28;20434;-71
2023/12/27 09:14:33;;;;;;;6.37;3.70;;;8.90;99.90;;;;;;5114390;28;20192;-70
2023/12/27 09:16:59;;;;;;;4.30;3.00;;;8.80;99.90;;;;;;5128599;27;20210;-69
2023/12/27 09:19:25;;;;;;;6.63;3.87;;;8.80;99.90;;;;;;5135535;27;20422;-70
2023/12/27 09:21:51;;;;;;;7.10;3.90;;;8.80;99.90;;;;;;5135038;27;20239;-69
2023/12/27 09:24:16;;;;;;;4.80;3.70;;;8.90;99.90;;;;;;5134758;27;20457;-70
2023/12/27 09:26:42;;;;;;;4.80;3.40;;;9.00;99.90;;;;;;5123954;27;20181;-69
2023/12/27 09:29:11;;;;;;;7.47;4.20;;;9.00;99.90;;;;;;5114577;28;20196;-70
2023/12/27 09:31:36;;;;;;;4.90;4.10;;;9.00;99.90;;;;;;5114359;28;20612;-70
2023/12/27 09:34:02;;;;;;;8.33;4.50;;;9.00;99.90;;;;;;5114386;28;20991;-69
2023/12/27 09:36:28;;;;;;;5.73;3.70;;;9.10;99.90;;;;;;5123603;27;20169;-69
2023/12/27 09:38:54;;;;;;;5.50;3.90;;;9.20;99.90;;;;;;5135297;27;20854;-69
2023/12/27 09:41:20;;;;;;;5.23;3.80;;;9.30;99.90;;;;;;5134804;27;20186;-70
2023/12/27 09:43:46;;;;;;;6.30;4.00;;;9.40;99.90;;;;;;5134438;27;20191;-69
2023/12/27 09:46:14;;;;;;;5.43;3.70;;;9.50;99.90;;;;;;5130086;27;20173;-70
2023/12/27 09:48:41;;;;;;;5.83;3.60;;;9.60;99.90;;;;;;5134666;27;20932;-70
2023/12/27 09:51:09;;;;;;;5.17;3.63;;;9.50;99.90;;;;;;5134452;27;21013;-69
2023/12/27 09:53:35;;;;;;;6.37;4.33;;;9.60;99.90;;;;;;5115681;27;20529;-70
2023/12/27 09:56:01;;;;;;;5.07;3.63;;;9.60;99.90;;;;;;5129192;27;20860;-70
2023/12/27 09:58:28;;;;;;;9.33;4.73;;;9.70;99.90;;;;;;5095510;28;20166;-70
2023/12/27 10:01:02;;;;;;;8.77;4.67;;;9.80;99.90;;;;;;5095434;28;20427;-69
2023/12/27 10:03:35;;;;;;;4.63;3.73;;;9.90;99.90;;;;;;5113592;28;20508;-70
2023/12/27 10:06:13;;;;;;;8.17;5.40;;;9.90;99.90;;;;;;5118519;27;20391;-70
2023/12/27 10:08:39;;;;;;;8.80;5.57;;;9.70;99.90;;;;;;5112737;27;20485;-70
2023/12/27 10:11:08;;;;;;;4.87;4.17;;;9.60;99.90;;;;;;5113624;28;20434;-70
2023/12/27 10:13:41;;;;;;;7.67;4.07;;;9.90;99.90;;;;;;5113593;28;20424;-70
2023/12/27 10:16:07;;;;;;;5.30;3.93;;;10.10;99.90;;;;;;5121805;27;20484;-70
2023/12/27 10:18:32;;;;;;;5.33;4.03;;;10.20;99.90;;;;;;5133971;27;20461;-69
2023/12/27 10:20:59;;;;;;;4.93;3.80;;;10.10;99.90;;;;;;5134168;27;20408;-70
2023/12/27 10:23:24;;;;;;;4.37;3.80;;;10.20;99.90;;;;;;5133756;27;20199;-68
2023/12/27 10:25:53;;;;;;;6.27;3.30;;;10.40;99.90;;;;;;5130930;27;20405;-70
2023/12/27 10:28:25;;;;;;;5.77;3.30;;;10.70;99.90;;;;;;5113704;28;20171;-69
2023/12/27 10:30:54;;;;;;;5.43;3.20;;;10.90;99.90;;;;;;5096093;28;20805;-70
2023/12/27 10:33:20;;;;;;;5.60;3.27;;;10.90;99.90;;;;;;5113723;28;20490;-69
2023/12/27 10:35:47;;;;;;;4.23;3.57;;;11.10;99.90;;;;;;5115688;28;20398;-70
2023/12/27 10:38:13;;;;;;;5.50;3.37;;;11.10;99.90;;;;;;5134755;28;20397;-70
2023/12/27 10:40:41;;;;;;;4.40;3.50;;;11.10;99.90;;;;;;5134508;28;20491;-71
2023/12/27 10:43:08;;;;;;;4.97;3.30;;;11.10;99.90;;;;;;5134004;27;20188;-70
2023/12/27 10:45:34;;;;;;;4.70;3.03;;;10.90;99.90;;;;;;5133464;28;20402;-69
2023/12/27 10:48:04;;;;;;;6.47;3.40;;;11.10;99.90;;;;;;5113191;28;20403;-70
2023/12/27 10:50:31;;;;;;;3.80;3.37;;;11.30;99.90;;;;;;5114536;28;21013;-70
2023/12/27 10:53:05;;;;;;;6.00;3.43;;;11.50;99.90;;;;;;5113354;28;20426;-71
2023/12/27 10:55:35;;;;;;;4.30;3.10;;;11.70;99.90;;;;;;5113575;28;20467;-70
2023/12/27 10:58:05;;;;;;;3.43;2.53;;;11.70;99.90;;;;;;5075889;28;20418;-70
2023/12/27 11:00:31;;;;;;;3.63;3.17;;;12.40;99.90;;;;;;5093176;28;20405;-70
2023/12/27 11:02:59;;;;;;;5.27;2.50;;;13.00;99.90;;;;;;5093070;28;20403;-69
2023/12/27 11:05:27;;;;;;;6.93;2.50;;;14.00;99.90;;;;;;5092625;28;20223;-70
2023/12/27 11:07:57;;;;;;;3.43;2.20;;;16.10;99.90;;;;;;5132177;28;20404;-70
2023/12/27 11:10:27;;;;;;;3.87;2.00;;;16.60;99.40;;;;;;5133444;28;20513;-69
2023/12/27 11:12:58;;;;;;;4.87;2.60;;;16.10;98.30;;;;;;5133939;28;20374;-70
2023/12/27 11:15:26;;;;;;;4.90;2.87;;;16.30;98.60;;;;;;5133441;27;20460;-70
2023/12/27 11:17:54;;;;;;;5.07;2.10;;;17.80;97.60;;;;;;5114100;28;20407;-70
2023/12/27 11:20:21;;;;;;;2.20;1.80;;;19.80;95.00;;;;;;5112843;28;20403;-70
2023/12/27 11:22:49;;;;;;;3.53;2.07;;;21.30;90.80;;;;;;5112827;28;20406;-68
2023/12/27 11:25:16;;;;;;;4.00;2.10;;;21.10;85.80;;;;;;5112812;28;20418;-70
2023/12/27 11:27:42;;;;;;;2.47;1.70;;;20.80;83.10;;;;;;5130794;28;20646;-70
2023/12/27 11:30:11;;;;;;;2.70;1.90;;;21.20;82.10;;;;;;5133274;28;20486;-70
2023/12/27 11:32:41;;;;;;;5.83;2.10;;;21.60;80.50;;;;;;5132093;28;20414;-70
2023/12/27 11:35:28;;;;;;;3.60;1.90;;;22.00;77.10;;;;;;5135018;27;20474;-70
2023/12/27 11:38:12;;;;;;;3.00;1.77;;;21.60;76.30;;;;;;5116616;27;20409;-70
2023/12/27 11:40:39;;;;;;;2.47;1.70;;;21.00;72.90;;;;;;5116931;28;20455;-70
2023/12/27 11:43:06;;;;;;;3.43;1.80;;;21.30;72.40;;;;;;5116949;28;20485;-71
2023/12/27 11:45:58;;;;;;;2.27;1.60;;;21.30;73.40;;;;;;5116521;28;20406;-71
2023/12/27 11:48:25;;;;;;;2.53;1.87;;;21.20;72.20;;;;;;5082564;28;20807;-71
2023/12/27 11:50:51;;;;;;;3.23;1.93;;;20.90;72.90;;;;;;5130607;27;20441;-70
2023/12/27 11:53:18;;;;;;;3.63;2.10;;;20.50;74.00;;;;;;5137008;27;20406;-71
2023/12/27 11:55:46;;;;;;;3.10;1.97;;;19.10;75.40;;;;;;5136214;27;20374;-70
2023/12/27 11:58:14;;;;;;;4.10;2.13;;;18.50;78.00;;;;;;5097723;28;20993;-70
2023/12/27 12:00:40;;;;;;;3.80;2.67;;;18.20;78.20;;;;;;5116549;28;20410;-69
2023/12/27 12:03:18;;;;;;;4.20;2.00;;;17.80;79.40;;;;;;5115880;28;20497;-70
2023/12/27 12:06:01;;;;;;;2.50;2.00;;;18.80;80.00;;;;;;5116026;28;20406;-70
2023/12/27 12:08:35;;;;;;;3.13;2.30;;;20.20;76.50;;;;;;5095357;28;20388;-70
2023/12/27 12:11:09;;;;;;;3.90;2.00;;;21.10;74.90;;;;;;5103186;27;20433;-70
2023/12/27 12:13:37;;;;;;;3.27;2.40;;;21.10;73.90;;;;;;5115949;28;20421;-70
2023/12/27 12:16:03;;;;;;;4.10;2.60;;;20.90;74.10;;;;;;5118924;27;20417;-71
2023/12/27 12:18:31;;;;;;;3.20;2.07;;;19.50;72.80;;;;;;5136157;27;20455;-70
2023/12/27 12:20:57;;;;;;;3.23;2.50;;;18.00;76.80;;;;;;5136730;27;20416;-71
2023/12/27 12:23:23;;;;;;;2.00;1.80;;;17.40;77.60;;;;;;5136139;27;20983;-71
2023/12/27 12:25:49;;;;;;;2.27;2.03;;;16.60;76.70;;;;;;5135853;27;20410;-70
2023/12/27 12:28:14;;;;;;;3.73;3.23;;;16.60;77.60;;;;;;5115757;28;20224;-70
2023/12/27 12:30:46;;;;;;;4.60;1.90;;;16.90;79.80;;;;;;5115480;28;20208;-70
2023/12/27 12:33:11;;;;;;;5.33;2.73;;;16.70;80.70;;;;;;5097280;28;20244;-70
2023/12/27 12:35:39;;;;;;;3.13;2.47;;;16.10;84.10;;;;;;5115498;28;20494;-69
2023/12/27 12:38:05;;;;;;;3.10;2.33;;;15.80;86.70;;;;;;5135841;27;20549;-70
2023/12/27 12:40:31;;;;;;;3.50;2.30;;;15.90;88.50;;;;;;5136530;27;20488;-71
2023/12/27 12:42:57;;;;;;;3.10;2.33;;;15.60;87.80;;;;;;5136294;27;20248;-70
2023/12/27 12:45:23;;;;;;;2.90;2.10;;;15.60;90.20;;;;;;5135245;27;20248;-70
2023/12/27 12:47:50;;;;;;;2.43;2.23;;;15.40;90.50;;;;;;5118357;27;21006;-70